Terminal Aerodrome Forecast
Issued by NWS

Home | Current Version | Previous Version | Text Only | Print | Product List | Glossary On
Versions: 1 2 3 4 5 6 7 8 9 10 11 12 13 14
000
FTUS42 KMLB 261100
TAFTIX
TAF
KTIX 261122Z 2612/2712 32003KT P6SM FEW250
     FM261400 03003KT P6SM FEW025 SCT250
     FM261800 05006KT P6SM SCT025 BKN040
     FM270000 03003KT P6SM BKN035
     FM270900 VRB03KT 5SM BR BKN008=

USA.gov is the U.S. government's official web portal to all federal, state and local government web resources and services.